sensor_id;sensor_type;location;lat;lon;timestamp;temperature;humidity
16635;DHT22;8431;52.458;9.998;2024-02-21T00:00:53;7.90;99.90
16635;DHT22;8431;52.458;9.998;2024-02-21T00:03:20;7.90;99.90
16635;DHT22;8431;52.458;9.998;2024-02-21T00:05:47;7.90;99.90
16635;DHT22;8431;52.458;9.998;2024-02-21T00:08:13;7.90;99.90
16635;DHT22;8431;52.458;9.998;2024-02-21T00:10:40;8.00;99.90
16635;DHT22;8431;52.458;9.998;2024-02-21T00:13:07;7.90;99.90
16635;DHT22;8431;52.458;9.998;2024-02-21T00:15:34;7.90;99.90
16635;DHT22;8431;52.458;9.998;2024-02-21T00:18:02;7.90;99.90
16635;DHT22;8431;52.458;9.998;2024-02-21T00:20:29;7.90;99.90
16635;DHT22;8431;52.458;9.998;2024-02-21T00:22:56;7.90;99.90
16635;DHT22;8431;52.458;9.998;2024-02-21T00:25:23;8.00;99.90
16635;DHT22;8431;52.458;9.998;2024-02-21T00:27:49;7.90;99.90
16635;DHT22;8431;52.458;9.998;2024-02-21T00:30:16;8.00;99.90
16635;DHT22;8431;52.458;9.998;2024-02-21T00:32:43;7.90;99.90
16635;DHT22;8431;52.458;9.998;2024-02-21T00:35:11;8.00;99.90
16635;DHT22;8431;52.458;9.998;2024-02-21T00:37:38;8.00;99.90
16635;DHT22;8431;52.458;9.998;2024-02-21T00:40:06;8.00;99.90
16635;DHT22;8431;52.458;9.998;2024-02-21T00:42:33;8.00;99.90
16635;DHT22;8431;52.458;9.998;2024-02-21T00:45:00;8.00;99.90
16635;DHT22;8431;52.458;9.998;2024-02-21T00:47:27;8.00;99.90
16635;DHT22;8431;52.458;9.998;2024-02-21T00:49:53;8.00;99.90
16635;DHT22;8431;52.458;9.998;2024-02-21T00:52:36;8.00;99.90
16635;DHT22;8431;52.458;9.998;2024-02-21T00:55:04;8.00;99.90
16635;DHT22;8431;52.458;9.998;2024-02-21T00:57:31;8.00;99.90
16635;DHT22;8431;52.458;9.998;2024-02-21T00:59:58;8.10;99.90
16635;DHT22;8431;52.458;9.998;2024-02-21T01:02:25;8.10;99.90
16635;DHT22;8431;52.458;9.998;2024-02-21T01:04:52;8.10;99.90
16635;DHT22;8431;52.458;9.998;2024-02-21T01:07:19;8.10;99.90
16635;DHT22;8431;52.458;9.998;2024-02-21T01:09:47;8.00;99.90
16635;DHT22;8431;52.458;9.998;2024-02-21T01:12:15;8.00;99.90
16635;DHT22;8431;52.458;9.998;2024-02-21T01:14:42;8.00;99.90
16635;DHT22;8431;52.458;9.998;2024-02-21T01:17:09;8.00;99.90
16635;DHT22;8431;52.458;9.998;2024-02-21T01:19:36;8.00;99.90
16635;DHT22;8431;52.458;9.998;2024-02-21T01:22:03;8.00;99.90
16635;DHT22;8431;52.458;9.998;2024-02-21T01:24:29;8.00;99.90
16635;DHT22;8431;52.458;9.998;2024-02-21T01:26:58;8.10;99.90
16635;DHT22;8431;52.458;9.998;2024-02-21T01:29:24;8.00;99.90
16635;DHT22;8431;52.458;9.998;2024-02-21T01:31:51;8.10;99.90
16635;DHT22;8431;52.458;9.998;2024-02-21T01:34:18;8.10;99.90
16635;DHT22;8431;52.458;9.998;2024-02-21T01:36:45;8.00;99.90
16635;DHT22;8431;52.458;9.998;2024-02-21T01:39:11;8.00;99.90
16635;DHT22;8431;52.458;9.998;2024-02-21T01:41:38;8.00;99.90
16635;DHT22;8431;52.458;9.998;2024-02-21T01:44:06;8.00;99.90
16635;DHT22;8431;52.458;9.998;2024-02-21T01:46:34;8.10;99.90
16635;DHT22;8431;52.458;9.998;2024-02-21T01:49:01;8.10;99.90
16635;DHT22;8431;52.458;9.998;2024-02-21T01:51:28;8.10;99.90
16635;DHT22;8431;52.458;9.998;2024-02-21T01:53:55;8.10;99.90
16635;DHT22;8431;52.458;9.998;2024-02-21T01:56:24;8.10;99.90
16635;DHT22;8431;52.458;9.998;2024-02-21T01:58:51;8.20;99.90
16635;DHT22;8431;52.458;9.998;2024-02-21T02:01:19;8.20;99.90
16635;DHT22;8431;52.458;9.998;2024-02-21T02:03:47;8.10;99.90
16635;DHT22;8431;52.458;9.998;2024-02-21T02:06:14;8.20;99.90
16635;DHT22;8431;52.458;9.998;2024-02-21T02:08:42;8.30;99.90
16635;DHT22;8431;52.458;9.998;2024-02-21T02:11:09;8.30;99.90
16635;DHT22;8431;52.458;9.998;2024-02-21T02:13:36;8.30;99.90
16635;DHT22;8431;52.458;9.998;2024-02-21T02:16:03;8.30;99.90
16635;DHT22;8431;52.458;9.998;2024-02-21T02:18:31;8.30;99.90
16635;DHT22;8431;52.458;9.998;2024-02-21T02:20:58;8.30;99.90
16635;DHT22;8431;52.458;9.998;2024-02-21T02:23:26;8.30;99.90
16635;DHT22;8431;52.458;9.998;2024-02-21T02:25:54;8.30;99.90
16635;DHT22;8431;52.458;9.998;2024-02-21T02:28:21;8.20;99.90
16635;DHT22;8431;52.458;9.998;2024-02-21T02:30:48;8.20;99.90
16635;DHT22;8431;52.458;9.998;2024-02-21T02:33:15;8.30;99.90
16635;DHT22;8431;52.458;9.998;2024-02-21T02:35:43;8.40;99.90
16635;DHT22;8431;52.458;9.998;2024-02-21T02:38:10;8.40;99.90
16635;DHT22;8431;52.458;9.998;2024-02-21T02:40:40;8.40;99.90
16635;DHT22;8431;52.458;9.998;2024-02-21T02:43:07;8.40;99.90
16635;DHT22;8431;52.458;9.998;2024-02-21T02:45:34;8.40;99.90
16635;DHT22;8431;52.458;9.998;2024-02-21T02:48:00;8.40;99.90
16635;DHT22;8431;52.458;9.998;2024-02-21T02:50:27;8.40;99.90
16635;DHT22;8431;52.458;9.998;2024-02-21T02:52:55;8.40;99.90
16635;DHT22;8431;52.458;9.998;2024-02-21T02:55:22;8.40;99.90
16635;DHT22;8431;52.458;9.998;2024-02-21T02:57:50;8.40;99.90
16635;DHT22;8431;52.458;9.998;2024-02-21T03:00:17;8.30;99.90
16635;DHT22;8431;52.458;9.998;2024-02-21T03:02:45;8.40;99.90
16635;DHT22;8431;52.458;9.998;2024-02-21T03:05:13;8.40;99.90
16635;DHT22;8431;52.458;9.998;2024-02-21T03:07:41;8.40;99.90
16635;DHT22;8431;52.458;9.998;2024-02-21T03:10:08;8.40;99.90
16635;DHT22;8431;52.458;9.998;2024-02-21T03:12:35;8.40;99.90
16635;DHT22;8431;52.458;9.998;2024-02-21T03:15:05;8.40;99.90
16635;DHT22;8431;52.458;9.998;2024-02-21T03:17:32;8.40;99.90
16635;DHT22;8431;52.458;9.998;2024-02-21T03:19:59;8.30;99.90
16635;DHT22;8431;52.458;9.998;2024-02-21T03:22:26;8.40;99.90
16635;DHT22;8431;52.458;9.998;2024-02-21T03:24:53;8.40;99.90
16635;DHT22;8431;52.458;9.998;2024-02-21T03:27:20;8.30;99.90
16635;DHT22;8431;52.458;9.998;2024-02-21T03:29:47;8.40;99.90
16635;DHT22;8431;52.458;9.998;2024-02-21T03:32:15;8.40;99.90
16635;DHT22;8431;52.458;9.998;2024-02-21T03:34:42;8.40;99.90
16635;DHT22;8431;52.458;9.998;2024-02-21T03:37:09;8.40;99.90
16635;DHT22;8431;52.458;9.998;2024-02-21T03:39:36;8.40;99.90
16635;DHT22;8431;52.458;9.998;2024-02-21T03:42:04;8.40;99.90
16635;DHT22;8431;52.458;9.998;2024-02-21T03:44:31;8.50;99.90
16635;DHT22;8431;52.458;9.998;2024-02-21T03:46:58;8.50;99.90
16635;DHT22;8431;52.458;9.998;2024-02-21T03:49:26;8.40;99.90
16635;DHT22;8431;52.458;9.998;2024-02-21T03:51:53;8.40;99.90
16635;DHT22;8431;52.458;9.998;2024-02-21T03:54:20;8.40;99.90
16635;DHT22;8431;52.458;9.998;2024-02-21T03:56:47;8.40;99.90
16635;DHT22;8431;52.458;9.998;2024-02-21T03:59:14;8.40;99.90
16635;DHT22;8431;52.458;9.998;2024-02-21T04:01:41;8.40;99.90
16635;DHT22;8431;52.458;9.998;2024-02-21T04:04:09;8.40;99.90
16635;DHT22;8431;52.458;9.998;2024-02-21T04:06:46;8.50;99.90
16635;DHT22;8431;52.458;9.998;2024-02-21T04:09:13;8.40;99.90
16635;DHT22;8431;52.458;9.998;2024-02-21T04:11:39;8.50;99.90
16635;DHT22;8431;52.458;9.998;2024-02-21T04:14:06;8.50;99.90
16635;DHT22;8431;52.458;9.998;2024-02-21T04:16:33;8.60;99.90
16635;DHT22;8431;52.458;9.998;2024-02-21T04:19:00;8.60;99.90
16635;DHT22;8431;52.458;9.998;2024-02-21T04:21:27;8.50;99.90
16635;DHT22;8431;52.458;9.998;2024-02-21T04:23:55;8.50;99.90
16635;DHT22;8431;52.458;9.998;2024-02-21T04:26:22;8.50;99.90
16635;DHT22;8431;52.458;9.998;2024-02-21T04:28:49;8.50;99.90
16635;DHT22;8431;52.458;9.998;2024-02-21T04:31:16;8.50;99.90
16635;DHT22;8431;52.458;9.998;2024-02-21T04:33:43;8.50;99.90
16635;DHT22;8431;52.458;9.998;2024-02-21T04:36:10;8.50;99.90
16635;DHT22;8431;52.458;9.998;2024-02-21T04:38:36;8.60;99.90
16635;DHT22;8431;52.458;9.998;2024-02-21T04:41:05;8.60;99.90
16635;DHT22;8431;52.458;9.998;2024-02-21T04:43:33;8.50;99.90
16635;DHT22;8431;52.458;9.998;2024-02-21T04:46:00;8.60;99.90
16635;DHT22;8431;52.458;9.998;2024-02-21T04:48:27;8.60;99.90
16635;DHT22;8431;52.458;9.998;2024-02-21T04:50:54;8.60;99.90
16635;DHT22;8431;52.458;9.998;2024-02-21T04:53:21;8.60;99.90
16635;DHT22;8431;52.458;9.998;2024-02-21T04:55:47;8.60;99.90
16635;DHT22;8431;52.458;9.998;2024-02-21T04:58:15;8.60;99.90
16635;DHT22;8431;52.458;9.998;2024-02-21T05:00:42;8.60;99.90
16635;DHT22;8431;52.458;9.998;2024-02-21T05:03:09;8.60;99.90
16635;DHT22;8431;52.458;9.998;2024-02-21T05:05:36;8.60;99.90
16635;DHT22;8431;52.458;9.998;2024-02-21T05:08:04;8.60;99.90
16635;DHT22;8431;52.458;9.998;2024-02-21T05:10:31;8.50;99.90
16635;DHT22;8431;52.458;9.998;2024-02-21T05:12:58;8.60;99.90
16635;DHT22;8431;52.458;9.998;2024-02-21T05:15:26;8.60;99.90
16635;DHT22;8431;52.458;9.998;2024-02-21T05:17:53;8.60;99.90
16635;DHT22;8431;52.458;9.998;2024-02-21T05:20:20;8.60;99.90
16635;DHT22;8431;52.458;9.998;2024-02-21T05:22:46;8.50;99.90
16635;DHT22;8431;52.458;9.998;2024-02-21T05:25:13;8.50;99.90
16635;DHT22;8431;52.458;9.998;2024-02-21T05:27:40;8.50;99.90
16635;DHT22;8431;52.458;9.998;2024-02-21T05:30:08;8.50;99.90
16635;DHT22;8431;52.458;9.998;2024-02-21T05:32:36;8.50;99.90
16635;DHT22;8431;52.458;9.998;2024-02-21T05:35:04;8.40;99.90
16635;DHT22;8431;52.458;9.998;2024-02-21T05:37:30;8.50;99.90
16635;DHT22;8431;52.458;9.998;2024-02-21T05:39:57;8.40;99.90
16635;DHT22;8431;52.458;9.998;2024-02-21T05:42:24;8.40;99.90
16635;DHT22;8431;52.458;9.998;2024-02-21T05:44:51;8.40;99.90
16635;DHT22;8431;52.458;9.998;2024-02-21T05:47:18;8.40;99.90
16635;DHT22;8431;52.458;9.998;2024-02-21T05:49:47;8.50;99.90
16635;DHT22;8431;52.458;9.998;2024-02-21T05:52:14;8.40;99.90
16635;DHT22;8431;52.458;9.998;2024-02-21T05:54:41;8.30;99.90
16635;DHT22;8431;52.458;9.998;2024-02-21T05:57:08;8.30;99.90
16635;DHT22;8431;52.458;9.998;2024-02-21T05:59:35;8.20;99.90
16635;DHT22;8431;52.458;9.998;2024-02-21T06:02:05;8.20;99.90
16635;DHT22;8431;52.458;9.998;2024-02-21T06:04:32;8.10;99.90
16635;DHT22;8431;52.458;9.998;2024-02-21T06:07:00;8.10;99.90
16635;DHT22;8431;52.458;9.998;2024-02-21T06:09:27;8.00;99.90
16635;DHT22;8431;52.458;9.998;2024-02-21T06:11:54;8.00;99.90
16635;DHT22;8431;52.458;9.998;2024-02-21T06:14:21;8.00;99.90
16635;DHT22;8431;52.458;9.998;2024-02-21T06:16:47;7.90;99.90
16635;DHT22;8431;52.458;9.998;2024-02-21T06:19:14;7.90;99.90
16635;DHT22;8431;52.458;9.998;2024-02-21T06:21:45;7.80;99.90
16635;DHT22;8431;52.458;9.998;2024-02-21T06:24:13;7.70;99.90
16635;DHT22;8431;52.458;9.998;2024-02-21T06:26:41;7.80;99.90
16635;DHT22;8431;52.458;9.998;2024-02-21T06:29:07;7.70;99.90
16635;DHT22;8431;52.458;9.998;2024-02-21T06:31:35;7.60;99.90
16635;DHT22;8431;52.458;9.998;2024-02-21T06:34:02;7.60;99.90
16635;DHT22;8431;52.458;9.998;2024-02-21T06:36:29;7.60;99.90
16635;DHT22;8431;52.458;9.998;2024-02-21T06:38:56;7.50;99.90
16635;DHT22;8431;52.458;9.998;2024-02-21T06:41:24;7.50;99.90
16635;DHT22;8431;52.458;9.998;2024-02-21T06:43:51;7.60;99.90
16635;DHT22;8431;52.458;9.998;2024-02-21T06:46:24;7.50;99.90
16635;DHT22;8431;52.458;9.998;2024-02-21T06:48:51;7.50;99.90
16635;DHT22;8431;52.458;9.998;2024-02-21T06:51:18;7.50;99.90
16635;DHT22;8431;52.458;9.998;2024-02-21T06:53:45;7.50;99.90
16635;DHT22;8431;52.458;9.998;2024-02-21T06:56:12;7.60;99.90
16635;DHT22;8431;52.458;9.998;2024-02-21T06:58:40;7.60;99.90
16635;DHT22;8431;52.458;9.998;2024-02-21T07:01:07;7.60;99.90
16635;DHT22;8431;52.458;9.998;2024-02-21T07:03:34;7.70;99.90
16635;DHT22;8431;52.458;9.998;2024-02-21T07:06:01;7.80;99.90
16635;DHT22;8431;52.458;9.998;2024-02-21T07:08:28;7.80;99.90
16635;DHT22;8431;52.458;9.998;2024-02-21T07:10:55;7.80;99.90
16635;DHT22;8431;52.458;9.998;2024-02-21T07:13:22;7.90;99.90
16635;DHT22;8431;52.458;9.998;2024-02-21T07:15:50;7.90;99.90
16635;DHT22;8431;52.458;9.998;2024-02-21T07:18:17;7.80;99.90
16635;DHT22;8431;52.458;9.998;2024-02-21T07:20:44;7.80;99.90
16635;DHT22;8431;52.458;9.998;2024-02-21T07:23:11;7.90;99.90
16635;DHT22;8431;52.458;9.998;2024-02-21T07:25:38;7.90;99.90
16635;DHT22;8431;52.458;9.998;2024-02-21T07:28:06;8.00;99.90
16635;DHT22;8431;52.458;9.998;2024-02-21T07:30:33;8.10;99.90
16635;DHT22;8431;52.458;9.998;2024-02-21T07:33:04;8.20;99.90
16635;DHT22;8431;52.458;9.998;2024-02-21T07:35:32;8.20;99.90
16635;DHT22;8431;52.458;9.998;2024-02-21T07:38:00;8.20;99.90
16635;DHT22;8431;52.458;9.998;2024-02-21T07:40:26;8.20;99.90
16635;DHT22;8431;52.458;9.998;2024-02-21T07:42:54;8.20;99.90
16635;DHT22;8431;52.458;9.998;2024-02-21T07:45:21;8.30;99.90
16635;DHT22;8431;52.458;9.998;2024-02-21T07:47:49;8.30;99.90
16635;DHT22;8431;52.458;9.998;2024-02-21T07:50:18;8.30;99.90
16635;DHT22;8431;52.458;9.998;2024-02-21T07:52:45;8.40;99.90
16635;DHT22;8431;52.458;9.998;2024-02-21T07:55:11;8.40;99.90
16635;DHT22;8431;52.458;9.998;2024-02-21T07:57:38;8.40;99.90
16635;DHT22;8431;52.458;9.998;2024-02-21T08:00:06;8.40;99.90
16635;DHT22;8431;52.458;9.998;2024-02-21T08:02:35;8.40;99.90
16635;DHT22;8431;52.458;9.998;2024-02-21T08:05:15;8.40;99.90
16635;DHT22;8431;52.458;9.998;2024-02-21T08:07:44;8.40;99.90
16635;DHT22;8431;52.458;9.998;2024-02-21T08:10:11;8.50;99.90
16635;DHT22;8431;52.458;9.998;2024-02-21T08:12:38;8.50;99.90
16635;DHT22;8431;52.458;9.998;2024-02-21T08:15:06;8.50;99.90
16635;DHT22;8431;52.458;9.998;2024-02-21T08:17:33;8.40;99.90
16635;DHT22;8431;52.458;9.998;2024-02-21T08:20:00;8.50;99.90
16635;DHT22;8431;52.458;9.998;2024-02-21T08:22:27;8.50;99.90
16635;DHT22;8431;52.458;9.998;2024-02-21T08:25:23;8.50;99.90
16635;DHT22;8431;52.458;9.998;2024-02-21T08:27:49;8.50;99.90
16635;DHT22;8431;52.458;9.998;2024-02-21T08:30:17;8.70;99.90
16635;DHT22;8431;52.458;9.998;2024-02-21T08:32:44;8.70;99.90
16635;DHT22;8431;52.458;9.998;2024-02-21T08:35:11;8.70;99.90
16635;DHT22;8431;52.458;9.998;2024-02-21T08:37:38;8.70;99.90
16635;DHT22;8431;52.458;9.998;2024-02-21T08:40:06;8.70;99.90
16635;DHT22;8431;52.458;9.998;2024-02-21T08:42:36;8.70;99.90
16635;DHT22;8431;52.458;9.998;2024-02-21T08:45:03;8.70;99.90
16635;DHT22;8431;52.458;9.998;2024-02-21T08:47:30;8.80;99.90
16635;DHT22;8431;52.458;9.998;2024-02-21T08:49:57;8.80;99.90
16635;DHT22;8431;52.458;9.998;2024-02-21T08:52:24;8.80;99.90
16635;DHT22;8431;52.458;9.998;2024-02-21T08:54:51;8.80;99.90
16635;DHT22;8431;52.458;9.998;2024-02-21T08:57:19;8.80;99.90
16635;DHT22;8431;52.458;9.998;2024-02-21T08:59:47;8.90;99.90
16635;DHT22;8431;52.458;9.998;2024-02-21T09:02:14;9.00;99.90
16635;DHT22;8431;52.458;9.998;2024-02-21T09:04:42;9.10;99.90
16635;DHT22;8431;52.458;9.998;2024-02-21T09:07:09;9.10;99.90
16635;DHT22;8431;52.458;9.998;2024-02-21T09:09:36;9.20;99.90
16635;DHT22;8431;52.458;9.998;2024-02-21T09:12:05;9.30;99.90
16635;DHT22;8431;52.458;9.998;2024-02-21T09:14:32;9.20;99.90
16635;DHT22;8431;52.458;9.998;2024-02-21T09:17:00;9.10;99.90
16635;DHT22;8431;52.458;9.998;2024-02-21T09:19:27;9.20;99.90
16635;DHT22;8431;52.458;9.998;2024-02-21T09:21:53;9.30;99.90
16635;DHT22;8431;52.458;9.998;2024-02-21T09:24:20;9.40;99.90
16635;DHT22;8431;52.458;9.998;2024-02-21T09:26:47;9.40;99.90
16635;DHT22;8431;52.458;9.998;2024-02-21T09:29:14;9.40;99.90
16635;DHT22;8431;52.458;9.998;2024-02-21T09:31:42;9.40;99.90
16635;DHT22;8431;52.458;9.998;2024-02-21T09:34:10;9.60;99.90
16635;DHT22;8431;52.458;9.998;2024-02-21T09:36:37;9.80;99.90
16635;DHT22;8431;52.458;9.998;2024-02-21T09:39:03;10.00;99.90
16635;DHT22;8431;52.458;9.998;2024-02-21T09:41:30;9.90;99.90
16635;DHT22;8431;52.458;9.998;2024-02-21T09:46:54;10.00;99.90
16635;DHT22;8431;52.458;9.998;2024-02-21T09:49:34;10.10;99.90
16635;DHT22;8431;52.458;9.998;2024-02-21T09:52:15;10.20;99.90
16635;DHT22;8431;52.458;9.998;2024-02-21T09:54:58;10.40;99.90
16635;DHT22;8431;52.458;9.998;2024-02-21T09:57:26;10.40;99.90
16635;DHT22;8431;52.458;9.998;2024-02-21T09:59:57;10.50;99.90
16635;DHT22;8431;52.458;9.998;2024-02-21T10:02:33;10.30;99.90
16635;DHT22;8431;52.458;9.998;2024-02-21T10:05:17;10.30;99.90
16635;DHT22;8431;52.458;9.998;2024-02-21T10:07:50;10.30;99.90
16635;DHT22;8431;52.458;9.998;2024-02-21T10:10:18;10.40;99.90
16635;DHT22;8431;52.458;9.998;2024-02-21T10:12:53;10.40;99.10
16635;DHT22;8431;52.458;9.998;2024-02-21T10:15:25;10.40;99.30
16635;DHT22;8431;52.458;9.998;2024-02-21T10:17:59;10.40;99.30
16635;DHT22;8431;52.458;9.998;2024-02-21T10:20:34;10.40;98.60
16635;DHT22;8431;52.458;9.998;2024-02-21T10:23:03;10.30;98.20
16635;DHT22;8431;52.458;9.998;2024-02-21T10:25:34;10.20;98.80
16635;DHT22;8431;52.458;9.998;2024-02-21T10:28:02;10.10;96.70
16635;DHT22;8431;52.458;9.998;2024-02-21T10:30:30;10.10;97.80
16635;DHT22;8431;52.458;9.998;2024-02-21T10:32:59;10.30;96.80
16635;DHT22;8431;52.458;9.998;2024-02-21T10:35:33;10.30;96.80
16635;DHT22;8431;52.458;9.998;2024-02-21T10:38:04;10.30;96.20
16635;DHT22;8431;52.458;9.998;2024-02-21T10:40:31;10.20;96.70
16635;DHT22;8431;52.458;9.998;2024-02-21T10:43:02;10.30;96.60
16635;DHT22;8431;52.458;9.998;2024-02-21T10:45:38;10.30;96.60
16635;DHT22;8431;52.458;9.998;2024-02-21T10:48:31;10.50;96.00
16635;DHT22;8431;52.458;9.998;2024-02-21T10:51:15;10.30;94.30
16635;DHT22;8431;52.458;9.998;2024-02-21T10:54:02;10.30;95.80
16635;DHT22;8431;52.458;9.998;2024-02-21T10:56:53;10.30;95.40
16635;DHT22;8431;52.458;9.998;2024-02-21T10:59:24;10.30;95.90
16635;DHT22;8431;52.458;9.998;2024-02-21T11:02:08;10.40;96.30
16635;DHT22;8431;52.458;9.998;2024-02-21T11:04:39;10.50;96.30
16635;DHT22;8431;52.458;9.998;2024-02-21T11:07:20;10.70;96.40
16635;DHT22;8431;52.458;9.998;2024-02-21T11:09:51;10.60;96.40
16635;DHT22;8431;52.458;9.998;2024-02-21T11:12:21;10.60;95.60
16635;DHT22;8431;52.458;9.998;2024-02-21T11:14:48;10.60;95.00
16635;DHT22;8431;52.458;9.998;2024-02-21T11:17:15;10.90;95.40
16635;DHT22;8431;52.458;9.998;2024-02-21T11:19:42;10.90;94.00
16635;DHT22;8431;52.458;9.998;2024-02-21T11:22:14;10.80;94.20
16635;DHT22;8431;52.458;9.998;2024-02-21T11:24:47;10.70;94.50
16635;DHT22;8431;52.458;9.998;2024-02-21T11:27:20;10.80;95.00
16635;DHT22;8431;52.458;9.998;2024-02-21T11:29:57;11.00;94.10
16635;DHT22;8431;52.458;9.998;2024-02-21T11:32:26;10.90;94.40
16635;DHT22;8431;52.458;9.998;2024-02-21T11:34:54;10.80;93.80
16635;DHT22;8431;52.458;9.998;2024-02-21T11:37:23;10.60;94.00
16635;DHT22;8431;52.458;9.998;2024-02-21T11:39:52;10.70;93.70
16635;DHT22;8431;52.458;9.998;2024-02-21T11:42:19;10.80;94.40
16635;DHT22;8431;52.458;9.998;2024-02-21T11:44:46;10.90;94.20
16635;DHT22;8431;52.458;9.998;2024-02-21T11:47:14;10.90;94.50
16635;DHT22;8431;52.458;9.998;2024-02-21T11:49:44;11.00;94.60
16635;DHT22;8431;52.458;9.998;2024-02-21T11:52:11;11.10;94.10
16635;DHT22;8431;52.458;9.998;2024-02-21T11:54:41;11.20;93.80
16635;DHT22;8431;52.458;9.998;2024-02-21T11:57:09;11.00;93.70
16635;DHT22;8431;52.458;9.998;2024-02-21T11:59:36;11.00;93.80
16635;DHT22;8431;52.458;9.998;2024-02-21T12:02:03;11.00;94.60
16635;DHT22;8431;52.458;9.998;2024-02-21T12:04:30;11.10;94.50
16635;DHT22;8431;52.458;9.998;2024-02-21T12:06:57;11.00;93.00
16635;DHT22;8431;52.458;9.998;2024-02-21T12:09:25;11.00;93.40
16635;DHT22;8431;52.458;9.998;2024-02-21T12:11:58;11.00;93.50
16635;DHT22;8431;52.458;9.998;2024-02-21T12:14:28;11.00;93.30
16635;DHT22;8431;52.458;9.998;2024-02-21T12:16:55;10.90;93.30
16635;DHT22;8431;52.458;9.998;2024-02-21T12:19:23;10.90;93.40
16635;DHT22;8431;52.458;9.998;2024-02-21T12:21:50;10.90;93.30
16635;DHT22;8431;52.458;9.998;2024-02-21T12:24:22;11.00;93.60
16635;DHT22;8431;52.458;9.998;2024-02-21T12:26:49;11.00;92.80
16635;DHT22;8431;52.458;9.998;2024-02-21T12:29:17;11.00;93.20
16635;DHT22;8431;52.458;9.998;2024-02-21T12:31:45;11.20;92.90
16635;DHT22;8431;52.458;9.998;2024-02-21T12:34:13;11.30;94.20
16635;DHT22;8431;52.458;9.998;2024-02-21T12:36:41;11.60;92.70
16635;DHT22;8431;52.458;9.998;2024-02-21T12:39:09;11.40;91.60
16635;DHT22;8431;52.458;9.998;2024-02-21T12:41:35;11.30;92.20
16635;DHT22;8431;52.458;9.998;2024-02-21T12:44:04;11.10;91.50
16635;DHT22;8431;52.458;9.998;2024-02-21T12:46:32;11.00;91.90
16635;DHT22;8431;52.458;9.998;2024-02-21T12:49:01;11.10;92.10
16635;DHT22;8431;52.458;9.998;2024-02-21T12:51:28;11.30;92.70
16635;DHT22;8431;52.458;9.998;2024-02-21T12:53:56;11.30;91.80
16635;DHT22;8431;52.458;9.998;2024-02-21T12:56:23;11.40;91.90
16635;DHT22;8431;52.458;9.998;2024-02-21T12:58:52;11.20;91.70
16635;DHT22;8431;52.458;9.998;2024-02-21T13:01:19;11.30;91.30
16635;DHT22;8431;52.458;9.998;2024-02-21T13:03:47;11.30;92.10
16635;DHT22;8431;52.458;9.998;2024-02-21T13:06:15;11.30;91.50
16635;DHT22;8431;52.458;9.998;2024-02-21T13:08:42;11.30;91.80
16635;DHT22;8431;52.458;9.998;2024-02-21T13:11:09;11.20;91.40
16635;DHT22;8431;52.458;9.998;2024-02-21T13:13:36;11.30;91.10
16635;DHT22;8431;52.458;9.998;2024-02-21T13:16:04;11.30;92.00
16635;DHT22;8431;52.458;9.998;2024-02-21T13:18:31;11.20;91.30
16635;DHT22;8431;52.458;9.998;2024-02-21T13:20:58;11.10;91.10
16635;DHT22;8431;52.458;9.998;2024-02-21T13:23:26;11.20;91.40
16635;DHT22;8431;52.458;9.998;2024-02-21T13:25:53;11.30;91.20
16635;DHT22;8431;52.458;9.998;2024-02-21T13:28:19;11.30;91.70
16635;DHT22;8431;52.458;9.998;2024-02-21T13:30:46;11.20;91.50
16635;DHT22;8431;52.458;9.998;2024-02-21T13:33:13;11.20;91.20
16635;DHT22;8431;52.458;9.998;2024-02-21T13:35:40;11.00;92.60
16635;DHT22;8431;52.458;9.998;2024-02-21T13:38:07;11.10;92.60
16635;DHT22;8431;52.458;9.998;2024-02-21T13:40:36;11.20;92.40
16635;DHT22;8431;52.458;9.998;2024-02-21T13:43:03;11.30;93.30
16635;DHT22;8431;52.458;9.998;2024-02-21T13:45:30;11.20;92.20
16635;DHT22;8431;52.458;9.998;2024-02-21T13:47:58;11.10;92.10
16635;DHT22;8431;52.458;9.998;2024-02-21T13:50:30;11.10;93.10
16635;DHT22;8431;52.458;9.998;2024-02-21T13:52:57;11.20;93.10
16635;DHT22;8431;52.458;9.998;2024-02-21T13:55:24;11.20;93.10
16635;DHT22;8431;52.458;9.998;2024-02-21T13:57:53;11.20;93.00
16635;DHT22;8431;52.458;9.998;2024-02-21T14:00:20;11.30;94.20
16635;DHT22;8431;52.458;9.998;2024-02-21T14:02:47;11.30;93.30
16635;DHT22;8431;52.458;9.998;2024-02-21T14:05:14;11.20;93.60
16635;DHT22;8431;52.458;9.998;2024-02-21T14:07:41;11.10;93.80
16635;DHT22;8431;52.458;9.998;2024-02-21T14:10:08;11.20;93.60
16635;DHT22;8431;52.458;9.998;2024-02-21T14:12:36;11.10;93.60
16635;DHT22;8431;52.458;9.998;2024-02-21T14:15:05;11.00;93.50
16635;DHT22;8431;52.458;9.998;2024-02-21T14:17:32;10.90;93.30
16635;DHT22;8431;52.458;9.998;2024-02-21T14:19:58;10.90;93.60
16635;DHT22;8431;52.458;9.998;2024-02-21T14:22:25;10.80;93.50
16635;DHT22;8431;52.458;9.998;2024-02-21T14:24:52;10.90;93.90
16635;DHT22;8431;52.458;9.998;2024-02-21T14:27:19;10.90;94.00
16635;DHT22;8431;52.458;9.998;2024-02-21T14:29:46;10.80;93.90
16635;DHT22;8431;52.458;9.998;2024-02-21T14:32:14;10.80;94.30
16635;DHT22;8431;52.458;9.998;2024-02-21T14:34:41;10.90;95.00
16635;DHT22;8431;52.458;9.998;2024-02-21T14:37:08;10.90;95.10
16635;DHT22;8431;52.458;9.998;2024-02-21T14:39:34;10.90;95.60
16635;DHT22;8431;52.458;9.998;2024-02-21T14:42:01;10.90;94.30
16635;DHT22;8431;52.458;9.998;2024-02-21T14:44:28;10.90;95.10
16635;DHT22;8431;52.458;9.998;2024-02-21T14:46:55;10.80;95.80
16635;DHT22;8431;52.458;9.998;2024-02-21T14:49:23;10.80;96.20
16635;DHT22;8431;52.458;9.998;2024-02-21T14:51:59;10.80;95.20
16635;DHT22;8431;52.458;9.998;2024-02-21T14:54:29;10.90;96.40
16635;DHT22;8431;52.458;9.998;2024-02-21T14:56:56;10.90;95.60
16635;DHT22;8431;52.458;9.998;2024-02-21T14:59:23;10.90;96.00
16635;DHT22;8431;52.458;9.998;2024-02-21T15:01:56;10.80;95.50
16635;DHT22;8431;52.458;9.998;2024-02-21T15:04:33;10.90;95.90
16635;DHT22;8431;52.458;9.998;2024-02-21T15:07:02;10.70;96.30
16635;DHT22;8431;52.458;9.998;2024-02-21T15:09:29;10.80;96.00
16635;DHT22;8431;52.458;9.998;2024-02-21T15:11:58;10.70;96.90
16635;DHT22;8431;52.458;9.998;2024-02-21T15:14:25;10.70;97.10
16635;DHT22;8431;52.458;9.998;2024-02-21T15:16:52;10.60;96.50
16635;DHT22;8431;52.458;9.998;2024-02-21T15:19:18;10.60;96.70
16635;DHT22;8431;52.458;9.998;2024-02-21T15:21:47;10.50;97.00
16635;DHT22;8431;52.458;9.998;2024-02-21T15:24:15;10.50;97.00
16635;DHT22;8431;52.458;9.998;2024-02-21T15:26:43;10.50;97.60
16635;DHT22;8431;52.458;9.998;2024-02-21T15:29:10;10.40;98.20
16635;DHT22;8431;52.458;9.998;2024-02-21T15:31:37;10.40;97.50
16635;DHT22;8431;52.458;9.998;2024-02-21T15:34:04;10.40;98.40
16635;DHT22;8431;52.458;9.998;2024-02-21T15:36:31;10.30;98.70
16635;DHT22;8431;52.458;9.998;2024-02-21T15:38:59;10.30;98.70
16635;DHT22;8431;52.458;9.998;2024-02-21T15:41:27;10.30;98.80
16635;DHT22;8431;52.458;9.998;2024-02-21T15:43:54;10.40;98.60
16635;DHT22;8431;52.458;9.998;2024-02-21T15:46:22;10.40;98.90
16635;DHT22;8431;52.458;9.998;2024-02-21T15:48:49;10.30;98.90
16635;DHT22;8431;52.458;9.998;2024-02-21T15:51:21;10.20;99.20
16635;DHT22;8431;52.458;9.998;2024-02-21T15:53:48;10.30;99.50
16635;DHT22;8431;52.458;9.998;2024-02-21T15:56:18;10.20;99.70
16635;DHT22;8431;52.458;9.998;2024-02-21T15:58:45;10.10;99.90
16635;DHT22;8431;52.458;9.998;2024-02-21T16:01:12;10.10;99.90
16635;DHT22;8431;52.458;9.998;2024-02-21T16:03:41;9.90;99.90